Flag for New Caledonia

Past Weather in Noumea, New Caledonia, New Caledonia — Yesterday and Last 2 Weeks

Currently: 64 °F. Clear. (Weather station: La Tontouta Nlle-Caledonie, New Caledonia). See more current weather

Past Weather in Noumea — Graph

°F

Noumea Temperature Yesterday

Maximum temperature yesterday: 82 °F (at 10:30 am)
Minimum temperature yesterday: 64 °F (at 4:30 am)
Average temperature yesterday: 73 °F

High & Low Weather Summary for the Past Weeks

 TemperatureHumidityPressure
High90 °F (Oct 12, 12:30 pm)100% (Oct 13, 2:30 am)30.07 "Hg (Oct 13, 2:30 am)
Low61 °F (Oct 11, 5:00 am)38% (Oct 12, 12:30 pm)29.74 "Hg (Oct 13, 1:30 pm)
Average73 °F78%29.93 "Hg
* Reported Oct 11 1:00 am — Oct 26 1:00 am, Noumea. Weather by CustomWeather, © 2021

Note: Actual official high and low records may vary slightly from our data, if they occured in-between our weather recording intervals... More about our weather records

Noumea Weather History for the Previous 24 Hours

Scroll right to see more
 ConditionsComfort  
Time TempWeatherWind HumidityBarometerVisibility
1:00 am
Tue, Oct 26
64 °FClear.3 mph83%30.01 "Hg10 mi
12:30 am66 °FClear.2 mph78%30.01 "Hg10 mi
12:00 am66 °FPassing clouds.5 mph83%30.01 "HgN/A
11:30 pm
Mon, Oct 25
66 °FPassing clouds.7 mph83%30.01 "HgN/A
11:00 pm66 °FClear.8 mph83%30.01 "Hg10 mi
10:30 pm66 °FClear.6 mph83%30.01 "Hg10 mi
10:00 pm68 °FPassing clouds.5 mph78%30.01 "HgN/A
9:30 pm68 °FPassing clouds.7 mph83%30.01 "HgN/A
9:00 pm68 °FPassing clouds.7 mph83%30.01 "HgN/A
8:30 pm70 °FClear.9 mph78%29.98 "Hg10 mi
8:00 pm70 °FClear.9 mph78%29.98 "Hg10 mi
7:30 pm70 °FPassing clouds.9 mph83%29.98 "HgN/A
7:00 pm72 °FPassing clouds.10 mph78%29.95 "HgN/A
6:30 pm72 °FClear.10 mph78%29.95 "Hg10 mi
6:00 pm73 °FSunny.14 mph74%29.95 "Hg10 mi
5:30 pm75 °FPassing clouds.12 mph69%29.92 "HgN/A
5:00 pm77 °FPartly sunny.12 mph65%29.92 "HgN/A
4:30 pm77 °FPartly sunny.12 mph65%29.92 "HgN/A
4:00 pm77 °FPartly sunny.10 mph65%29.92 "HgN/A
3:30 pm79 °FPassing clouds.13 mph61%29.92 "HgN/A
3:00 pm79 °FScattered clouds.13 mph61%29.92 "HgN/A
2:30 pm81 °FPartly sunny.14 mph62%29.92 "HgN/A
2:00 pm81 °FPassing clouds.14 mph62%29.92 "HgN/A
1:30 pm81 °FPassing clouds.14 mph62%29.92 "HgN/A
1:00 pm81 °FScattered clouds.13 mph58%29.95 "HgN/A
12:30 pm81 °FPartly sunny.12 mph62%29.95 "HgN/A
12:00 pm81 °FPartly sunny.12 mph62%29.95 "HgN/A
11:30 am81 °FPartly sunny.12 mph58%29.95 "HgN/A
11:00 am82 °FPassing clouds.12 mph55%29.95 "HgN/A
10:30 am82 °FPassing clouds.12 mph55%29.98 "HgN/A
10:00 am81 °FPassing clouds.9 mph51%29.98 "HgN/A
9:30 am79 °FPassing clouds.5 mph58%29.98 "HgN/A
9:00 am79 °FSunny.5 mph58%29.98 "Hg10 mi
8:30 am77 °FSunny.3 mph61%29.98 "Hg10 mi
8:00 am75 °FSunny.2 mph69%29.98 "Hg10 mi
7:30 am73 °FSunny.2 mph74%29.98 "Hg10 mi
7:00 am70 °FSunny.1 mph83%29.98 "Hg10 mi
6:30 am68 °FSunny.1 mph83%29.98 "Hg10 mi
6:00 am66 °FSunny.1 mph94%29.98 "Hg10 mi
5:30 am64 °FSunny.No wind94%29.98 "Hg10 mi
5:00 am64 °FClear.No wind94%29.95 "Hg10 mi
4:30 am64 °FClear.No wind94%29.95 "Hg10 mi
4:00 am66 °FClear.1 mph94%29.95 "Hg10 mi
3:30 am66 °FClear.2 mph94%29.95 "Hg10 mi
3:00 am66 °FPassing clouds.1 mph94%29.95 "HgN/A
2:30 am66 °FPassing clouds.No wind88%29.95 "HgN/A
2:00 am66 °FClear.2 mph88%29.95 "Hg10 mi
Weather by CustomWeather, © 2021

See weather overview